Terminal Aerodrome Forecast
Issued by NWS Twin Cities, MN

Home | Current Version | Previous Version | Graphics & Text | Print | Product List | Glossary On
Versions: 1 2 3 4 5 6 7 8 9 10 11 12 13
000
FTUS43 KMPX 030520
TAFEAU
TAF
KEAU 030520Z 0306/0406 18008KT P6SM SCT250
     FM031300 19009KT P6SM SCT040 BKN150
     FM031900 23010KT P6SM BKN040
     FM032200 26009KT P6SM -SHRA OVC035
      TEMPO 0323/0401 33030G45KT 2SM TSRA OVC020CB
     FM040200 36010KT P6SM BKN045=

USA.gov is the U.S. government's official web portal to all federal, state and local government web resources and services.